Time;durP1;ratioP1;P1;durP2;ratioP2;P2;SDS_P1;SDS_P2;PMS_P1;PMS_P2;Temp;Humidity;BMP_temperature;BMP_pressure;BME280_temperature;BME280_humidity;BME280_pressure;Samples;Min_cycle;Max_cycle;Signal;HPM_P1;HPM_P2
2023/07/17 00:01:08;;;;;;;7.20;4.90;;;;;;;14.28;100.00;101076.18;105707;1253;72636;-44
2023/07/17 00:03:37;;;;;;;9.90;4.40;;;;;;;14.26;100.00;101077.29;105587;1255;63928;-45
2023/07/17 00:06:04;;;;;;;8.40;4.90;;;;;;;14.25;100.00;101078.01;105681;1257;72635;-44
2023/07/17 00:08:33;;;;;;;9.70;4.70;;;;;;;14.24;100.00;101082.71;105610;1259;60521;-45
2023/07/17 00:11:01;;;;;;;6.30;4.70;;;;;;;14.23;100.00;101082.38;105673;1257;60450;-44
2023/07/17 00:13:29;;;;;;;7.50;3.80;;;;;;;14.24;100.00;101083.06;105754;1257;73856;-45
2023/07/17 00:15:57;;;;;;;6.50;4.30;;;;;;;14.24;100.00;101079.05;105578;1257;64456;-44
2023/07/17 00:18:25;;;;;;;7.80;4.60;;;;;;;14.25;100.00;101076.80;105594;1259;72626;-45
2023/07/17 00:20:54;;;;;;;5.20;3.80;;;;;;;14.25;100.00;101077.13;105663;1257;61630;-45
2023/07/17 00:23:21;;;;;;;7.10;4.10;;;;;;;14.26;100.00;101075.19;105671;1257;60350;-45
2023/07/17 00:25:50;;;;;;;6.50;4.60;;;;;;;14.28;100.00;101071.52;105609;1256;72597;-45
2023/07/17 00:28:17;;;;;;;5.90;4.30;;;;;;;14.28;100.00;101069.27;105414;1257;64009;-45
2023/07/17 00:30:47;;;;;;;15.20;5.20;;;;;;;14.24;100.00;101070.89;105629;1257;72647;-44
2023/07/17 00:33:15;;;;;;;8.60;4.20;;;;;;;14.20;100.00;101064.91;105594;1256;60482;-44
2023/07/17 00:35:43;;;;;;;6.80;4.20;;;;;;;14.16;100.00;101065.71;105644;1257;60472;-43
2023/07/17 00:38:11;;;;;;;4.60;3.60;;;;;;;14.12;100.00;101065.80;105623;1257;72661;-44
2023/07/17 00:40:41;;;;;;;4.60;4.20;;;;;;;14.08;100.00;101067.81;105600;1255;65228;-44
2023/07/17 00:43:12;;;;;;;8.70;4.40;;;;;;;14.05;100.00;101069.97;105566;1257;71067;-44
2023/07/17 00:45:43;;;;;;;6.00;4.50;;;;;;;14.01;100.00;101066.91;105606;1257;61649;-45
2023/07/17 00:48:10;;;;;;;7.90;4.00;;;;;;;13.98;100.00;101064.91;105659;1259;60476;-44
2023/07/17 00:50:38;;;;;;;10.60;4.70;;;;;;;13.97;100.00;101068.07;105557;1256;73774;-45
2023/07/17 00:53:06;;;;;;;8.20;3.90;;;;;;;13.94;100.00;101070.90;105660;1257;63975;-44
2023/07/17 00:55:34;;;;;;;18.00;4.50;;;;;;;13.91;100.00;101068.71;105551;1258;71380;-44
2023/07/17 00:58:02;;;;;;;5.80;4.10;;;;;;;13.86;100.00;101067.95;105581;1257;61606;-44
2023/07/17 01:00:30;;;;;;;5.90;3.80;;;;;;;13.82;100.00;101068.75;105574;1257;60709;-45
2023/07/17 01:02:57;;;;;;;4.50;4.10;;;;;;;13.77;100.00;101068.67;105544;1255;73825;-43
2023/07/17 01:05:25;;;;;;;6.60;4.30;;;;;;;13.73;100.00;101074.48;105545;1261;63910;-45
2023/07/17 01:07:53;;;;;;;7.10;4.00;;;;;;;13.70;100.00;101075.60;105640;1259;72646;-45
2023/07/17 01:10:21;;;;;;;9.90;4.50;;;;;;;13.65;100.00;101078.48;105608;1255;60447;-45
2023/07/17 01:12:49;;;;;;;5.30;4.10;;;;;;;13.62;100.00;101079.56;105700;1256;60805;-45
2023/07/17 01:15:16;;;;;;;9.60;4.10;;;;;;;13.62;100.00;101079.39;105599;1257;72653;-44
2023/07/17 01:17:44;;;;;;;8.40;4.00;;;;;;;13.67;100.00;101077.56;105591;1259;64541;-44
2023/07/17 01:20:12;;;;;;;8.00;4.00;;;;;;;13.72;100.00;101073.29;105603;1258;71455;-44
2023/07/17 01:22:59;;;;;;;9.90;4.40;;;;;;;13.76;100.00;101072.01;105657;1254;60910;-45
2023/07/17 01:25:27;;;;;;;6.90;4.20;;;;;;;13.78;100.00;101069.88;105594;1260;60937;-45
2023/07/17 01:27:55;;;;;;;10.60;4.10;;;;;;;13.77;100.00;101071.46;105646;1257;73736;-44
2023/07/17 01:30:23;;;;;;;9.20;3.80;;;;;;;13.76;100.00;101069.20;105573;1254;63946;-45
2023/07/17 01:32:51;;;;;;;10.60;4.50;;;;;;;13.73;100.00;101067.70;105647;1257;71382;-44
2023/07/17 01:35:19;;;;;;;5.60;3.90;;;;;;;13.71;100.00;101071.06;105606;1259;60597;-44
2023/07/17 01:37:46;;;;;;;5.30;4.30;;;;;;;13.69;100.00;101073.53;105603;1254;60370;-42
2023/07/17 01:40:15;;;;;;;4.50;3.70;;;;;;;13.68;100.00;101072.17;105613;1255;72625;-44
2023/07/17 01:42:43;;;;;;;8.60;4.20;;;;;;;13.66;100.00;101072.73;105659;1259;65167;-43
2023/07/17 01:45:10;;;;;;;6.60;4.00;;;;;;;13.63;100.00;101074.70;105625;1256;72612;-43
2023/07/17 01:47:38;;;;;;;4.10;3.70;;;;;;;13.60;100.00;101077.52;105580;1261;60549;-44
2023/07/17 01:50:06;;;;;;;6.60;3.90;;;;;;;13.57;100.00;101078.30;105620;1259;60361;-44
2023/07/17 01:52:34;;;;;;;6.50;3.60;;;;;;;13.54;100.00;101074.04;105627;1260;73825;-43
2023/07/17 01:55:02;;;;;;;4.10;3.50;;;;;;;13.51;100.00;101076.85;105606;1256;63948;-44
2023/07/17 01:57:30;;;;;;;8.60;4.10;;;;;;;13.49;100.00;101077.23;105634;1259;72643;-43
2023/07/17 01:59:57;;;;;;;4.90;4.30;;;;;;;13.48;100.00;101076.92;105536;1257;60696;-43
2023/07/17 02:02:25;;;;;;;7.00;4.10;;;;;;;13.47;100.00;101076.08;105605;1260;60438;-45
2023/07/17 02:04:53;;;;;;;6.10;3.90;;;;;;;13.47;100.00;101075.55;105573;1256;73849;-44
2023/07/17 02:07:21;;;;;;;7.30;3.80;;;;;;;13.49;100.00;101076.02;105548;1255;65134;-45
2023/07/17 02:09:49;;;;;;;6.80;4.30;;;;;;;13.53;100.00;101077.86;105597;1254;72683;-44
2023/07/17 02:12:18;;;;;;;6.00;3.60;;;;;;;13.57;100.00;101076.57;105651;1255;60749;-44
2023/07/17 02:14:46;;;;;;;13.60;4.30;;;;;;;13.62;100.00;101077.48;105597;1259;60440;-44
2023/07/17 02:17:13;;;;;;;11.70;3.70;;;;;;;13.68;100.00;101071.81;105592;1259;73800;-43
2023/07/17 02:19:41;;;;;;;5.40;3.50;;;;;;;13.72;100.00;101069.64;105533;1262;65257;-44
2023/07/17 02:22:09;;;;;;;3.70;3.30;;;;;;;13.76;100.00;101070.42;105531;1256;71451;-44
2023/07/17 02:24:37;;;;;;;7.70;3.10;;;;;;;13.80;100.00;101071.75;105653;1257;61627;-44
2023/07/17 02:27:04;;;;;;;6.50;2.90;;;;;;;13.82;100.00;101069.42;105615;1260;60421;-45
2023/07/17 02:29:32;;;;;;;9.80;3.40;;;;;;;13.86;100.00;101074.38;105604;1257;71992;-44
2023/07/17 02:32:00;;;;;;;4.30;3.20;;;;;;;13.89;100.00;101076.57;105626;1259;62919;-44
2023/07/17 02:34:28;;;;;;;4.80;2.90;;;;;;;13.94;100.00;101078.20;105745;1259;71362;-44
2023/07/17 02:36:56;;;;;;;5.80;3.50;;;;;;;13.99;100.00;101077.03;105580;1259;60682;-44
2023/07/17 02:39:24;;;;;;;3.50;3.20;;;;;;;14.06;100.00;101075.15;105590;1257;60776;-44
2023/07/17 02:41:52;;;;;;;4.60;3.50;;;;;;;14.14;100.00;101075.84;105677;1257;72692;-44
2023/07/17 02:44:20;;;;;;;5.90;2.90;;;;;;;14.23;100.00;101074.75;105644;1254;64440;-45
2023/07/17 02:46:48;;;;;;;8.00;2.70;;;;;;;14.30;100.00;101068.69;105646;1254;72665;-44
2023/07/17 02:49:16;;;;;;;5.30;3.20;;;;;;;14.39;100.00;101075.23;105628;1257;60489;-45
2023/07/17 02:51:44;;;;;;;3.30;2.90;;;;;;;14.47;100.00;101072.08;105541;1257;60370;-45
2023/07/17 02:54:12;;;;;;;3.30;2.80;;;;;;;14.55;100.00;101072.41;105551;1257;72647;-44
2023/07/17 02:56:40;;;;;;;8.10;3.20;;;;;;;14.63;100.00;101071.17;105660;1257;65263;-44
2023/07/17 02:59:09;;;;;;;3.20;2.90;;;;;;;14.72;100.00;101070.61;105546;1261;72635;-45
2023/07/17 03:01:36;;;;;;;3.10;2.30;;;;;;;14.82;100.00;101069.86;105602;1259;61756;-45
2023/07/17 03:04:05;;;;;;;3.30;2.80;;;;;;;14.92;100.00;101072.17;105712;1255;60495;-44
2023/07/17 03:06:32;;;;;;;11.30;2.80;;;;;;;15.02;100.00;101071.40;105651;1259;74318;-45
2023/07/17 03:09:01;;;;;;;3.50;3.00;;;;;;;15.13;100.00;101069.71;105635;1260;64021;-45
2023/07/17 03:11:28;;;;;;;6.30;2.70;;;;;;;15.25;100.00;101071.80;105581;1257;71401;-44
2023/07/17 03:13:56;;;;;;;6.10;3.30;;;;;;;15.39;100.00;101069.00;105649;1259;60498;-45
2023/07/17 03:16:24;;;;;;;8.70;3.20;;;;;;;15.52;100.00;101066.00;105651;1262;60357;-44
2023/07/17 03:18:52;;;;;;;7.80;3.00;;;;;;;15.65;100.00;101064.05;105576;1262;73791;-45
2023/07/17 03:21:22;;;;;;;7.10;2.90;;;;;;;15.79;100.00;101062.96;105618;1257;64509;-44
2023/07/17 03:23:51;;;;;;;3.20;2.50;;;;;;;15.93;100.00;101064.61;105561;1257;72705;-44
2023/07/17 03:26:18;;;;;;;4.20;3.10;;;;;;;16.07;100.00;101063.85;105610;1260;60645;-45
2023/07/17 03:28:47;;;;;;;5.00;2.70;;;;;;;16.20;100.00;101064.48;105641;1259;60358;-45
2023/07/17 03:31:15;;;;;;;11.70;2.80;;;;;;;16.31;100.00;101062.39;105674;1255;73116;-44
2023/07/17 03:33:45;;;;;;;3.40;2.70;;;;;;;16.41;100.00;101062.23;105727;1257;65339;-45
2023/07/17 03:36:13;;;;;;;5.50;2.70;;;;;;;16.52;100.00;101062.91;105619;1257;72638;-44
2023/07/17 03:38:41;;;;;;;8.50;2.70;;;;;;;16.61;100.00;101063.48;105592;1259;60749;-45
2023/07/17 03:41:09;;;;;;;4.20;2.50;;;;;;;16.72;100.00;101066.10;105578;1257;60593;-45
2023/07/17 03:43:37;;;;;;;3.50;2.90;;;;;;;16.81;100.00;101068.38;105606;1257;72637;-44
2023/07/17 03:46:05;;;;;;;89.00;5.30;;;;;;;16.91;100.00;101070.64;105638;1259;65138;-45
2023/07/17 03:48:33;;;;;;;14.80;2.80;;;;;;;17.04;100.00;101073.04;105564;1257;71820;-45
2023/07/17 03:51:05;;;;;;;6.90;2.80;;;;;;;17.18;100.00;101073.56;105639;1257;60812;-45
2023/07/17 03:53:34;;;;;;;4.60;2.60;;;;;;;17.34;100.00;101075.41;105610;1257;60495;-44
2023/07/17 03:56:02;;;;;;;5.10;2.20;;;;;;;17.53;100.00;101078.39;105482;1255;71705;-45
2023/07/17 03:58:30;;;;;;;3.90;2.20;;;;;;;17.72;100.00;101082.91;105577;1257;64359;-45
2023/07/17 04:00:59;;;;;;;6.80;2.40;;;;;;;17.92;100.00;101079.36;105569;1256;70898;-45
2023/07/17 04:03:31;;;;;;;10.10;3.00;;;;;;;18.16;100.00;101082.66;105609;1259;61652;-45
2023/07/17 04:05:59;;;;;;;2.40;2.30;;;;;;;18.41;100.00;101087.39;105665;1255;60472;-44
2023/07/17 04:08:28;;;;;;;4.50;2.80;;;;;;;18.73;100.00;101091.64;105657;1256;71886;-44
2023/07/17 04:10:56;;;;;;;4.70;2.30;;;;;;;19.07;100.00;101093.37;105606;1259;63919;-44
2023/07/17 04:13:24;;;;;;;3.00;2.40;;;;;;;19.40;100.00;101094.73;105607;1257;71695;-44
2023/07/17 04:15:52;;;;;;;5.10;2.30;;;;;;;19.65;100.00;101101.80;105608;1257;60971;-44
2023/07/17 04:18:20;;;;;;;3.00;2.30;;;;;;;19.85;100.00;101113.64;105452;1260;250607;-44
2023/07/17 04:23:10;;;;;;;2.40;2.10;;;;;;;20.17;100.00;101119.20;102678;1291;600202;-44
2023/07/17 04:25:40;;;;;;;5.70;2.10;;;;;;;20.35;100.00;101157.73;104800;1267;60688;-43
2023/07/17 04:28:09;;;;;;;7.50;2.30;;;;;;;20.58;100.00;101173.66;104887;1267;60675;-43
2023/07/17 04:30:37;;;;;;;7.80;2.00;;;;;;;20.83;100.00;101203.66;104864;1269;71048;-44
2023/07/17 04:33:08;;;;;;;7.80;2.10;;;;;;;21.04;100.00;101241.73;104909;1268;64458;-44
2023/07/17 04:35:39;;;;;;;9.30;2.70;;;;;;;21.32;100.00;101300.20;104820;1270;71485;-45
2023/07/17 04:38:07;;;;;;;10.60;2.30;;;;;;;21.69;100.00;101377.39;104826;1264;60247;-45
2023/07/17 04:40:35;;;;;;;4.70;2.30;;;;;;;22.07;100.00;101489.31;105139;1268;59327;-45
2023/07/17 04:43:03;;;;;;;7.60;2.40;;;;;;;22.47;100.00;101601.22;105114;1269;70418;-44
2023/07/17 04:45:31;;;;;;;15.50;3.20;;;;;;;22.87;100.00;101615.75;105172;1263;63683;-45
2023/07/17 04:48:00;;;;;;;10.70;1.90;;;;;;;23.26;100.00;101378.13;105306;1264;71882;-45
2023/07/17 04:50:28;;;;;;;7.30;2.90;;;;;;;23.59;100.00;100947.73;104950;1264;61373;-44
2023/07/17 04:52:56;;;;;;;14.30;2.70;;;;;;;23.89;100.00;100643.07;105109;1269;59576;-44
2023/07/17 04:55:28;;;;;;;8.10;2.30;;;;;;;24.19;100.00;100539.02;105136;1264;72842;-44
2023/07/17 04:57:55;;;;;;;21.40;3.10;;;;;;;24.42;100.00;100553.23;105157;1270;63930;-43
2023/07/17 05:00:24;;;;;;;7.90;2.20;;;;;;;24.62;100.00;100637.11;105134;1269;70827;-44
2023/07/17 05:02:52;;;;;;;10.40;2.40;;;;;;;24.86;100.00;100706.98;105077;1269;59672;-44
2023/07/17 05:05:20;;;;;;;9.00;2.00;;;;;;;25.10;100.00;100772.46;105135;1267;59535;-44
2023/07/17 05:07:49;;;;;;;7.90;2.20;;;;;;;25.28;100.00;100823.90;105200;1264;72086;-44
2023/07/17 05:10:18;;;;;;;3.70;2.20;;;;;;;25.48;100.00;100849.97;105111;1263;63675;-43
2023/07/17 05:12:46;;;;;;;13.60;2.40;;;;;;;25.81;100.00;100865.73;105031;1267;71744;-44
2023/07/17 05:15:15;;;;;;;12.10;2.80;;;;;;;26.04;100.00;100897.75;104859;1270;60004;-44
2023/07/17 05:17:42;;;;;;;9.40;2.30;;;;;;;26.08;92.14;100917.92;104818;1267;60050;-45
2023/07/17 05:20:11;;;;;;;9.70;1.80;;;;;;;26.06;85.35;100936.13;104851;1265;71885;-48
2023/07/17 05:22:42;;;;;;;5.40;1.70;;;;;;;26.17;85.50;100959.30;104853;1270;64033;-46
2023/07/17 05:25:13;;;;;;;6.70;1.80;;;;;;;26.35;85.59;100965.42;104971;1267;73064;-45
2023/07/17 05:27:45;;;;;;;7.50;1.70;;;;;;;26.57;82.78;100959.78;105045;1267;60049;-46
2023/07/17 05:30:21;;;;;;;3.00;1.40;;;;;;;26.73;82.47;100959.79;104862;1271;59568;-43
2023/07/17 05:32:52;;;;;;;18.90;1.90;;;;;;;26.99;78.79;100948.02;104880;1265;73020;-45
2023/07/17 05:35:23;;;;;;;9.90;2.10;;;;;;;27.22;72.99;100909.16;104967;1270;64049;-44
2023/07/17 05:37:53;;;;;;;10.90;2.00;;;;;;;27.29;70.21;100901.00;104874;1272;72345;-44
2023/07/17 05:40:21;;;;;;;4.20;1.80;;;;;;;27.35;68.04;100892.14;104884;1270;59740;-45
2023/07/17 05:42:48;;;;;;;4.50;1.40;;;;;;;27.47;66.75;100889.26;104827;1264;59718;-45
2023/07/17 05:45:16;;;;;;;11.30;2.00;;;;;;;27.65;68.00;100937.57;104916;1270;73018;-45
2023/07/17 05:47:44;;;;;;;10.10;2.60;;;;;;;27.94;66.70;100908.20;105119;1263;64378;-46
2023/07/17 05:50:12;;;;;;;19.00;2.00;;;;;;;28.22;63.92;100847.35;105170;1266;71413;-44
2023/07/17 05:52:41;;;;;;;15.10;2.40;;;;;;;28.43;63.22;100862.76;105193;1263;59755;-45
2023/07/17 05:55:09;;;;;;;18.40;2.10;;;;;;;28.58;61.22;100804.45;105398;1261;60453;-45
2023/07/17 05:57:36;;;;;;;12.60;1.80;;;;;;;28.53;59.21;100758.94;105195;1260;73076;-43
2023/07/17 06:00:05;;;;;;;7.90;1.70;;;;;;;28.53;59.17;100790.02;105172;1267;65286;-45
2023/07/17 06:02:39;;;;;;;9.30;2.00;;;;;;;28.61;59.04;100806.84;105163;1264;72701;-45
2023/07/17 06:05:08;;;;;;;20.30;1.70;;;;;;;28.53;58.82;100825.65;105402;1267;59995;-45
2023/07/17 06:07:37;;;;;;;19.70;2.00;;;;;;;28.34;58.77;100847.71;105267;1265;59730;-44
2023/07/17 06:10:05;;;;;;;12.50;2.70;;;;;;;28.18;59.11;100871.81;105196;1267;72261;-46
2023/07/17 06:12:33;;;;;;;15.30;2.50;;;;;;;28.05;59.27;100898.79;105200;1266;66332;-44
2023/07/17 06:15:01;;;;;;;14.10;2.10;;;;;;;28.01;61.02;100959.91;105730;1254;71409;-44
2023/07/17 06:17:29;;;;;;;9.70;1.80;;;;;;;28.09;61.29;100951.29;105668;1257;59737;-45
2023/07/17 06:19:56;;;;;;;13.40;1.90;;;;;;;28.07;60.22;100914.17;105680;1257;59688;-46
2023/07/17 06:22:24;;;;;;;10.30;1.80;;;;;;;28.14;60.52;100928.71;105690;1254;71834;-44
2023/07/17 06:24:52;;;;;;;9.40;2.10;;;;;;;28.18;60.86;100939.73;105664;1254;64155;-45
2023/07/17 06:27:20;;;;;;;8.90;1.40;;;;;;;28.22;60.60;100928.03;105678;1254;71489;-44
2023/07/17 06:29:47;;;;;;;6.10;1.60;;;;;;;28.16;60.33;100927.31;105588;1257;59672;-44
2023/07/17 06:32:15;;;;;;;25.40;2.70;;;;;;;28.16;59.79;100908.37;105649;1259;59737;-45
2023/07/17 06:34:43;;;;;;;6.50;1.90;;;;;;;28.22;59.72;100906.27;105635;1254;71922;-44
2023/07/17 06:37:10;;;;;;;7.60;1.60;;;;;;;28.17;58.79;100876.14;105619;1258;65304;-45
2023/07/17 06:39:38;;;;;;;8.80;1.70;;;;;;;28.02;60.81;100964.62;105682;1260;72327;-45
2023/07/17 06:42:08;;;;;;;7.60;1.80;;;;;;;28.02;60.17;100929.14;105842;1252;59751;-45
2023/07/17 06:44:36;;;;;;;28.10;3.50;;;;;;;27.93;58.26;100868.06;105669;1257;60069;-45
2023/07/17 06:47:04;;;;;;;17.70;2.30;;;;;;;27.79;59.60;100940.88;105608;1259;73055;-46
2023/07/17 06:49:41;;;;;;;8.40;1.80;;;;;;;27.78;59.10;100909.89;105678;1252;63949;-45
2023/07/17 06:52:08;;;;;;;17.80;1.80;;;;;;;27.75;57.78;100860.49;105807;1254;71861;-45
2023/07/17 06:54:36;;;;;;;16.20;1.80;;;;;;;27.69;57.07;100829.80;105760;1254;59636;-45
2023/07/17 06:57:24;;;;;;;34.90;3.60;;;;;;;27.68;56.77;100831.83;105682;1254;60072;-45
2023/07/17 06:59:52;;;;;;;7.90;2.00;;;;;;;27.73;55.75;100783.64;105731;1254;71977;-45
2023/07/17 07:02:19;;;;;;;9.40;2.10;;;;;;;27.74;54.78;100734.77;105661;1255;64489;-44
2023/07/17 07:04:47;;;;;;;23.80;2.80;;;;;;;27.72;54.44;100733.17;105623;1257;72739;-45
2023/07/17 07:07:15;;;;;;;8.30;2.10;;;;;;;27.70;52.70;100622.91;105696;1257;59788;-44
2023/07/17 07:09:46;;;;;;;31.10;3.70;;;;;;;27.78;51.25;100528.58;105833;1253;59650;-46
2023/07/17 07:12:14;;;;;;;15.70;2.00;;;;;;;27.88;51.09;100535.20;105902;1255;73035;-44
2023/07/17 07:14:44;;;;;;;9.00;1.50;;;;;;;27.90;51.01;100555.79;105690;1258;65165;-45
2023/07/17 07:17:14;;;;;;;10.60;2.00;;;;;;;27.95;51.97;100641.96;105843;1254;73117;-46
2023/07/17 07:19:44;;;;;;;10.00;2.00;;;;;;;27.99;50.82;100555.27;105638;1259;59688;-46
2023/07/17 07:22:11;;;;;;;4.90;1.60;;;;;;;27.98;51.50;100622.94;105687;1254;59653;-45
2023/07/17 07:24:41;;;;;;;56.60;4.80;;;;;;;28.05;50.84;100585.95;105639;1257;72994;-45
2023/07/17 07:27:09;;;;;;;25.50;2.50;;;;;;;28.16;50.14;100522.38;105716;1257;64078;-47
2023/07/17 07:29:37;;;;;;;10.50;1.90;;;;;;;28.22;49.85;100492.02;105677;1254;72646;-45
2023/07/17 07:32:05;;;;;;;4.70;1.90;;;;;;;28.24;49.08;100412.70;105661;1254;60044;-45
2023/07/17 07:34:37;;;;;;;6.00;1.70;;;;;;;28.30;50.04;100543.85;105695;1254;59638;-45
2023/07/17 07:37:05;;;;;;;7.00;2.00;;;;;;;28.43;48.81;100445.58;105767;1253;73154;-44
2023/07/17 07:39:33;;;;;;;6.40;2.00;;;;;;;28.54;49.43;100486.77;105737;1254;63757;-45
2023/07/17 07:42:00;;;;;;;13.00;2.20;;;;;;;28.61;48.24;100376.77;105642;1254;71443;-46
2023/07/17 07:44:28;;;;;;;5.50;1.60;;;;;;;28.61;48.67;100434.98;105658;1259;59692;-45
2023/07/17 07:46:56;;;;;;;8.20;1.70;;;;;;;28.53;47.75;100355.02;105524;1254;59961;-44
2023/07/17 07:49:23;;;;;;;5.00;1.90;;;;;;;28.49;50.08;100604.70;105527;1253;71812;-46
2023/07/17 07:51:51;;;;;;;9.70;2.00;;;;;;;28.65;49.16;100529.25;105653;1255;64599;-46
2023/07/17 07:54:19;;;;;;;3.80;1.50;;;;;;;28.77;48.96;100487.44;105739;1254;71003;-45
2023/07/17 07:56:50;;;;;;;9.80;2.10;;;;;;;28.88;49.35;100523.88;105840;1254;59752;-46
2023/07/17 07:59:18;;;;;;;6.10;1.70;;;;;;;29.12;49.25;100517.18;105588;1257;59563;-48
2023/07/17 08:01:45;;;;;;;8.10;1.60;;;;;;;29.36;49.16;100523.29;105668;1254;71741;-48
2023/07/17 08:04:13;;;;;;;7.30;1.90;;;;;;;29.55;47.93;100387.08;105589;1254;63955;-46
2023/07/17 08:06:41;;;;;;;5.90;1.90;;;;;;;29.67;47.79;100395.86;105657;1254;71385;-46
2023/07/17 08:09:09;;;;;;;4.70;1.80;;;;;;;29.65;48.46;100437.30;105618;1254;59558;-45
2023/07/17 08:11:37;;;;;;;7.50;2.50;;;;;;;29.67;49.47;100577.85;105741;1254;60015;-48
2023/07/17 08:14:05;;;;;;;2.80;1.90;;;;;;;29.80;49.33;100567.29;105676;1254;73505;-46
2023/07/17 08:16:32;;;;;;;6.10;1.90;;;;;;;30.01;47.71;100361.60;105725;1254;64102;-47
2023/07/17 08:19:00;;;;;;;5.40;2.00;;;;;;;30.20;46.22;100221.36;105677;1254;71382;-44
2023/07/17 08:21:28;;;;;;;3.50;2.10;;;;;;;30.24;46.38;100234.94;105674;1257;60458;-46
2023/07/17 08:23:56;;;;;;;13.70;2.40;;;;;;;30.26;47.15;100312.30;105707;1254;59998;-45
2023/07/17 08:26:24;;;;;;;9.80;1.90;;;;;;;30.21;46.62;100286.02;105670;1257;72540;-45
2023/07/17 08:28:53;;;;;;;5.20;2.00;;;;;;;30.15;46.93;100333.73;105722;1253;63939;-47
2023/07/17 08:31:20;;;;;;;3.80;2.30;;;;;;;30.19;46.69;100320.17;105733;1254;71366;-45
2023/07/17 08:33:49;;;;;;;4.40;1.90;;;;;;;30.10;45.20;100154.63;105644;1255;60552;-47
2023/07/17 08:36:17;;;;;;;12.30;2.20;;;;;;;30.06;45.18;100167.46;105702;1259;60533;-46
2023/07/17 08:38:46;;;;;;;9.40;3.00;;;;;;;30.01;46.10;100266.33;105643;1254;72656;-47
2023/07/17 08:41:14;;;;;;;3.90;2.10;;;;;;;30.09;46.52;100342.61;105684;1259;63997;-45
2023/07/17 08:43:43;;;;;;;52.70;4.20;;;;;;;30.16;44.73;100132.89;105675;1254;72658;-45
2023/07/17 08:46:12;;;;;;;6.50;2.20;;;;;;;30.38;47.40;100426.96;105732;1257;60555;-46
2023/07/17 08:48:43;;;;;;;6.60;2.40;;;;;;;30.66;45.79;100248.70;105721;1253;60365;-46
2023/07/17 08:51:11;;;;;;;5.40;2.30;;;;;;;30.91;47.33;100418.61;105701;1254;72616;-45
2023/07/17 08:53:43;;;;;;;14.50;2.10;;;;;;;31.25;47.68;100450.74;105715;1254;63547;-46
2023/07/17 08:56:12;;;;;;;30.90;3.00;;;;;;;31.61;47.82;100449.14;105723;1254;70964;-46
2023/07/17 08:58:40;;;;;;;9.00;2.10;;;;;;;31.77;45.80;100216.55;105697;1254;60508;-44
2023/07/17 09:01:08;;;;;;;8.50;2.50;;;;;;;31.85;44.80;100104.08;105709;1254;60344;-47
2023/07/17 09:03:37;;;;;;;4.90;2.10;;;;;;;31.84;43.23;99943.11;105633;1254;72630;-47
2023/07/17 09:06:05;;;;;;;7.20;2.00;;;;;;;31.79;42.94;99895.56;105732;1254;65368;-45
2023/07/17 09:08:32;;;;;;;9.40;2.50;;;;;;;31.60;42.55;99842.23;105673;1258;72701;-46
2023/07/17 09:11:04;;;;;;;6.00;2.30;;;;;;;31.47;42.54;99862.13;105658;1258;60556;-45
2023/07/17 09:13:42;;;;;;;4.20;2.30;;;;;;;31.39;42.17;99858.20;105678;1259;60349;-48
2023/07/17 09:16:20;;;;;;;8.50;2.50;;;;;;;31.55;42.14;99825.77;105694;1259;74264;-46
2023/07/17 09:18:50;;;;;;;4.90;2.00;;;;;;;31.87;44.21;100066.17;105658;1254;65263;-46
2023/07/17 09:21:23;;;;;;;4.10;2.50;;;;;;;32.07;46.68;100356.98;105710;1254;72699;-47
2023/07/17 09:23:54;;;;;;;5.50;2.20;;;;;;;32.24;44.53;100165.63;105773;1254;60684;-46
2023/07/17 09:26:24;;;;;;;3.20;2.30;;;;;;;32.33;43.93;100041.28;105702;1253;60562;-46
2023/07/17 09:28:56;;;;;;;8.20;2.00;;;;;;;32.33;43.95;100091.61;105757;1254;73140;-46
2023/07/17 09:31:26;;;;;;;4.50;2.30;;;;;;;32.30;42.24;99909.38;105871;1257;64039;-45
2023/07/17 09:33:55;;;;;;;5.80;2.70;;;;;;;32.28;41.46;99768.44;105688;1257;72665;-44
2023/07/17 09:36:23;;;;;;;3.40;2.60;;;;;;;32.44;42.93;99940.17;105713;1258;60479;-47
2023/07/17 09:38:55;;;;;;;5.30;2.20;;;;;;;32.59;44.35;100112.15;105663;1254;60354;-46
2023/07/17 09:41:24;;;;;;;9.10;2.50;;;;;;;32.66;43.36;100023.64;105700;1260;73812;-46
2023/07/17 09:43:53;;;;;;;2.60;2.20;;;;;;;32.65;41.31;99801.30;105736;1254;64478;-47
2023/07/17 09:46:20;;;;;;;5.50;2.20;;;;;;;32.42;40.91;99719.86;105747;1254;72086;-46
2023/07/17 09:48:49;;;;;;;6.80;2.20;;;;;;;32.33;41.31;99788.17;105635;1260;60643;-47
2023/07/17 09:51:18;;;;;;;6.00;2.30;;;;;;;32.30;41.26;99777.19;105707;1258;60453;-48
2023/07/17 09:53:47;;;;;;;8.60;2.40;;;;;;;32.22;40.81;99744.03;105703;1254;73829;-48
2023/07/17 09:56:15;;;;;;;4.90;2.60;;;;;;;32.10;41.49;99823.94;105752;1255;63993;-46
2023/07/17 09:58:53;;;;;;;49.30;4.40;;;;;;;32.14;41.82;99862.85;105724;1257;71409;-45
2023/07/17 10:01:23;;;;;;;5.00;2.40;;;;;;;32.25;42.28;99942.80;105686;1260;60501;-46
2023/07/17 10:03:51;;;;;;;4.70;2.20;;;;;;;32.32;42.88;100019.94;105812;1257;60536;-48
2023/07/17 10:06:20;;;;;;;3.70;2.40;;;;;;;32.38;44.06;100138.86;105724;1257;74385;-46
2023/07/17 10:08:50;;;;;;;7.80;2.30;;;;;;;32.43;42.31;99960.96;105625;1257;65232;-47
2023/07/17 10:11:17;;;;;;;2.80;2.50;;;;;;;32.33;42.87;100029.29;105709;1257;72669;-48
2023/07/17 10:13:47;;;;;;;7.30;2.50;;;;;;;32.34;42.04;99965.70;105795;1260;60580;-47
2023/07/17 10:16:17;;;;;;;3.00;2.40;;;;;;;32.31;42.39;99962.78;105704;1254;60345;-45
2023/07/17 10:18:49;;;;;;;6.40;2.90;;;;;;;32.50;43.76;100126.61;105718;1254;72543;-48
2023/07/17 10:21:18;;;;;;;9.10;2.50;;;;;;;32.87;42.74;100044.55;105706;1254;68430;-45
2023/07/17 10:23:48;;;;;;;5.20;2.30;;;;;;;33.22;42.21;99921.02;105675;1257;71353;-48
2023/07/17 10:26:18;;;;;;;4.70;2.30;;;;;;;33.47;41.89;99920.59;105704;1253;60450;-49
2023/07/17 10:28:53;;;;;;;5.40;2.50;;;;;;;33.63;41.85;99873.06;105731;1259;60364;-45
2023/07/17 10:31:23;;;;;;;5.60;2.40;;;;;;;33.78;39.86;99657.24;105727;1254;72616;-46
2023/07/17 10:34:00;;;;;;;3.70;2.10;;;;;;;33.81;39.68;99605.57;105708;1254;64319;-46
2023/07/17 10:36:38;;;;;;;19.60;2.70;;;;;;;33.64;38.31;99443.73;105716;1257;72622;-44
2023/07/17 10:39:07;;;;;;;5.80;2.60;;;;;;;33.19;39.06;99535.63;105654;1254;60559;-47
2023/07/17 10:41:37;;;;;;;7.50;2.40;;;;;;;32.95;40.05;99671.01;105704;1254;60407;-47
2023/07/17 10:44:08;;;;;;;6.90;2.20;;;;;;;32.94;41.30;99824.42;105662;1254;72595;-46
2023/07/17 10:46:38;;;;;;;9.90;2.40;;;;;;;33.07;43.01;100042.38;105720;1254;63909;-47
2023/07/17 10:49:10;;;;;;;9.90;2.50;;;;;;;33.14;40.87;99850.63;105720;1257;74664;-46
2023/07/17 10:52:05;;;;;;;10.40;2.50;;;;;;;32.96;41.53;99883.45;105755;1254;60552;-44
2023/07/17 10:54:33;;;;;;;3.90;2.40;;;;;;;32.69;41.33;99902.41;109443;1252;60214;-46
2023/07/17 10:57:01;;;;;;;6.10;2.30;;;;;;;32.59;42.97;100066.80;109519;1253;72629;-49
2023/07/17 10:59:28;;;;;;;5.70;2.80;;;;;;;32.63;43.20;100139.14;109351;1254;65143;-48
2023/07/17 11:01:59;;;;;;;7.80;2.60;;;;;;;32.62;41.92;99998.38;109170;1254;72644;-49
2023/07/17 11:07:36;;;;;;;4.20;2.70;;;;;;;31.69;42.11;100022.23;102590;1294;600972;-46
2023/07/17 11:10:10;;;;;;;4.40;2.60;;;;;;;31.49;43.38;100181.67;104832;1266;60045;-47
2023/07/17 11:12:40;;;;;;;5.70;3.00;;;;;;;31.71;42.75;100143.55;104825;1271;59319;-48
2023/07/17 11:15:16;;;;;;;8.90;4.00;;;;;;;31.96;41.96;100045.54;104867;1270;72195;-45
2023/07/17 11:17:44;;;;;;;;;;;;;;;32.19;42.32;100050.38;104840;1269;65265;-47
2023/07/17 11:20:12;;;;;;;3.20;2.50;;;;;;;32.45;43.46;100171.06;104624;1271;223127;-47
2023/07/17 11:22:42;;;;;;;8.40;4.60;;;;;;;32.82;44.13;100231.14;104911;1268;60045;-47
2023/07/17 11:25:13;;;;;;;18.20;5.10;;;;;;;33.25;43.00;100126.09;105002;1268;59400;-47